sensor_id;sensor_type;location;lat;lon;timestamp;temperature;humidity
1568;DHT22;777;47.156;8.326;2023-03-01T00:02:14;-0.50;99.90
1568;DHT22;777;47.156;8.326;2023-03-01T00:04:41;-0.50;99.90
1568;DHT22;777;47.156;8.326;2023-03-01T00:07:08;-0.50;99.90
1568;DHT22;777;47.156;8.326;2023-03-01T00:09:36;-0.60;99.90
1568;DHT22;777;47.156;8.326;2023-03-01T00:12:04;-0.60;99.90
1568;DHT22;777;47.156;8.326;2023-03-01T00:14:33;-0.50;99.90
1568;DHT22;777;47.156;8.326;2023-03-01T00:17:00;-0.60;99.90
1568;DHT22;777;47.156;8.326;2023-03-01T00:19:27;-0.60;99.90
1568;DHT22;777;47.156;8.326;2023-03-01T00:21:54;-0.50;99.90
1568;DHT22;777;47.156;8.326;2023-03-01T00:24:21;-0.60;99.90
1568;DHT22;777;47.156;8.326;2023-03-01T00:26:48;-0.50;99.90
1568;DHT22;777;47.156;8.326;2023-03-01T00:29:15;-0.50;99.90
1568;DHT22;777;47.156;8.326;2023-03-01T00:31:43;-0.60;99.90
1568;DHT22;777;47.156;8.326;2023-03-01T00:34:10;-0.50;99.90
1568;DHT22;777;47.156;8.326;2023-03-01T00:36:37;-0.60;99.90
1568;DHT22;777;47.156;8.326;2023-03-01T00:39:07;-0.50;99.90
1568;DHT22;777;47.156;8.326;2023-03-01T00:41:36;-0.60;99.90
1568;DHT22;777;47.156;8.326;2023-03-01T00:44:03;-0.50;99.90
1568;DHT22;777;47.156;8.326;2023-03-01T00:46:30;-0.50;99.90
1568;DHT22;777;47.156;8.326;2023-03-01T00:48:59;-0.50;99.90
1568;DHT22;777;47.156;8.326;2023-03-01T00:51:29;-0.50;99.90
1568;DHT22;777;47.156;8.326;2023-03-01T00:53:57;-0.50;99.90
1568;DHT22;777;47.156;8.326;2023-03-01T00:56:25;-0.50;99.90
1568;DHT22;777;47.156;8.326;2023-03-01T00:58:52;-0.50;99.90
1568;DHT22;777;47.156;8.326;2023-03-01T01:01:22;-0.50;99.90
1568;DHT22;777;47.156;8.326;2023-03-01T01:03:51;-0.50;99.90
1568;DHT22;777;47.156;8.326;2023-03-01T01:06:21;-0.60;99.90
1568;DHT22;777;47.156;8.326;2023-03-01T01:08:49;-0.50;99.90
1568;DHT22;777;47.156;8.326;2023-03-01T01:11:16;-0.60;99.90
1568;DHT22;777;47.156;8.326;2023-03-01T01:13:44;-0.60;99.90
1568;DHT22;777;47.156;8.326;2023-03-01T01:16:12;-0.60;99.90
1568;DHT22;777;47.156;8.326;2023-03-01T01:18:39;-0.60;99.90
1568;DHT22;777;47.156;8.326;2023-03-01T01:21:09;-0.60;99.90
1568;DHT22;777;47.156;8.326;2023-03-01T01:23:39;-0.60;99.90
1568;DHT22;777;47.156;8.326;2023-03-01T01:26:08;-0.60;99.90
1568;DHT22;777;47.156;8.326;2023-03-01T01:28:35;-0.60;99.90
1568;DHT22;777;47.156;8.326;2023-03-01T01:31:03;-0.60;99.90
1568;DHT22;777;47.156;8.326;2023-03-01T01:33:30;-0.60;99.90
1568;DHT22;777;47.156;8.326;2023-03-01T01:35:58;-0.60;99.90
1568;DHT22;777;47.156;8.326;2023-03-01T01:38:25;-0.50;99.90
1568;DHT22;777;47.156;8.326;2023-03-01T01:40:53;-0.60;99.90
1568;DHT22;777;47.156;8.326;2023-03-01T01:43:23;-0.60;99.90
1568;DHT22;777;47.156;8.326;2023-03-01T01:45:50;-0.60;99.90
1568;DHT22;777;47.156;8.326;2023-03-01T01:48:20;-0.60;99.90
1568;DHT22;777;47.156;8.326;2023-03-01T01:50:53;-0.60;99.90
1568;DHT22;777;47.156;8.326;2023-03-01T01:53:20;-0.50;99.90
1568;DHT22;777;47.156;8.326;2023-03-01T01:55:53;-0.60;99.90
1568;DHT22;777;47.156;8.326;2023-03-01T01:58:25;-0.60;99.90
1568;DHT22;777;47.156;8.326;2023-03-01T02:00:53;-0.50;99.90
1568;DHT22;777;47.156;8.326;2023-03-01T02:03:24;-0.50;99.90
1568;DHT22;777;47.156;8.326;2023-03-01T02:05:58;-0.50;99.90
1568;DHT22;777;47.156;8.326;2023-03-01T02:08:29;-0.60;99.90
1568;DHT22;777;47.156;8.326;2023-03-01T02:10:58;-0.50;99.90
1568;DHT22;777;47.156;8.326;2023-03-01T02:13:27;-0.60;99.90
1568;DHT22;777;47.156;8.326;2023-03-01T02:15:55;-0.50;99.90
1568;DHT22;777;47.156;8.326;2023-03-01T02:18:23;-0.50;99.90
1568;DHT22;777;47.156;8.326;2023-03-01T02:21:00;-0.60;99.90
1568;DHT22;777;47.156;8.326;2023-03-01T02:23:29;-0.60;99.90
1568;DHT22;777;47.156;8.326;2023-03-01T02:26:02;-0.50;99.90
1568;DHT22;777;47.156;8.326;2023-03-01T02:28:36;-0.50;99.90
1568;DHT22;777;47.156;8.326;2023-03-01T02:31:05;-0.50;99.90
1568;DHT22;777;47.156;8.326;2023-03-01T02:33:51;-0.50;99.90
1568;DHT22;777;47.156;8.326;2023-03-01T02:36:21;-0.50;99.90
1568;DHT22;777;47.156;8.326;2023-03-01T02:38:52;-0.60;99.90
1568;DHT22;777;47.156;8.326;2023-03-01T02:41:21;-0.60;99.90
1568;DHT22;777;47.156;8.326;2023-03-01T02:43:50;-0.60;99.90
1568;DHT22;777;47.156;8.326;2023-03-01T02:46:20;-0.60;99.90
1568;DHT22;777;47.156;8.326;2023-03-01T02:48:49;-0.60;99.90
1568;DHT22;777;47.156;8.326;2023-03-01T02:51:32;-0.60;99.90
1568;DHT22;777;47.156;8.326;2023-03-01T02:54:11;-0.60;99.90
1568;DHT22;777;47.156;8.326;2023-03-01T02:56:40;-0.60;99.90
1568;DHT22;777;47.156;8.326;2023-03-01T02:59:10;-0.60;99.90
1568;DHT22;777;47.156;8.326;2023-03-01T03:01:37;-0.60;99.90
1568;DHT22;777;47.156;8.326;2023-03-01T03:04:08;-0.60;99.90
1568;DHT22;777;47.156;8.326;2023-03-01T03:06:37;-0.60;99.90
1568;DHT22;777;47.156;8.326;2023-03-01T03:09:05;-0.60;99.90
1568;DHT22;777;47.156;8.326;2023-03-01T03:11:33;-0.60;99.90
1568;DHT22;777;47.156;8.326;2023-03-01T03:14:03;-0.60;99.90
1568;DHT22;777;47.156;8.326;2023-03-01T03:16:31;-0.60;99.90
1568;DHT22;777;47.156;8.326;2023-03-01T03:18:58;-0.60;99.90
1568;DHT22;777;47.156;8.326;2023-03-01T03:21:30;-0.60;99.90
1568;DHT22;777;47.156;8.326;2023-03-01T03:23:58;-0.60;99.90
1568;DHT22;777;47.156;8.326;2023-03-01T03:26:25;-0.60;99.90
1568;DHT22;777;47.156;8.326;2023-03-01T03:28:52;-0.60;99.90
1568;DHT22;777;47.156;8.326;2023-03-01T03:31:19;-0.60;99.90
1568;DHT22;777;47.156;8.326;2023-03-01T03:33:47;-0.60;99.90
1568;DHT22;777;47.156;8.326;2023-03-01T03:36:15;-0.60;99.90
1568;DHT22;777;47.156;8.326;2023-03-01T03:38:43;-0.60;99.90
1568;DHT22;777;47.156;8.326;2023-03-01T03:41:11;-0.60;99.90
1568;DHT22;777;47.156;8.326;2023-03-01T03:43:40;-0.60;99.90
1568;DHT22;777;47.156;8.326;2023-03-01T03:46:09;-0.60;99.90
1568;DHT22;777;47.156;8.326;2023-03-01T03:48:37;-0.60;99.90
1568;DHT22;777;47.156;8.326;2023-03-01T03:51:06;-0.60;99.90
1568;DHT22;777;47.156;8.326;2023-03-01T03:53:33;-0.60;99.90
1568;DHT22;777;47.156;8.326;2023-03-01T03:56:01;-0.60;99.90
1568;DHT22;777;47.156;8.326;2023-03-01T03:58:28;-0.60;99.90
1568;DHT22;777;47.156;8.326;2023-03-01T04:00:56;-0.60;99.90
1568;DHT22;777;47.156;8.326;2023-03-01T04:03:25;-0.60;99.90
1568;DHT22;777;47.156;8.326;2023-03-01T04:05:52;-0.60;99.90
1568;DHT22;777;47.156;8.326;2023-03-01T04:08:22;-0.50;99.90
1568;DHT22;777;47.156;8.326;2023-03-01T04:10:51;-0.50;99.90
1568;DHT22;777;47.156;8.326;2023-03-01T04:13:21;-0.50;99.90
1568;DHT22;777;47.156;8.326;2023-03-01T04:15:49;-0.50;99.90
1568;DHT22;777;47.156;8.326;2023-03-01T04:18:17;-0.50;99.90
1568;DHT22;777;47.156;8.326;2023-03-01T04:20:45;-0.50;99.90
1568;DHT22;777;47.156;8.326;2023-03-01T04:23:14;-0.50;99.90
1568;DHT22;777;47.156;8.326;2023-03-01T04:25:48;-0.50;99.90
1568;DHT22;777;47.156;8.326;2023-03-01T04:28:19;-0.50;99.90
1568;DHT22;777;47.156;8.326;2023-03-01T04:30:46;-0.50;99.90
1568;DHT22;777;47.156;8.326;2023-03-01T04:33:13;-0.50;99.90
1568;DHT22;777;47.156;8.326;2023-03-01T04:35:40;-0.50;99.90
1568;DHT22;777;47.156;8.326;2023-03-01T04:38:08;-0.50;99.90
1568;DHT22;777;47.156;8.326;2023-03-01T04:40:35;-0.50;99.90
1568;DHT22;777;47.156;8.326;2023-03-01T04:43:04;-0.50;99.90
1568;DHT22;777;47.156;8.326;2023-03-01T04:45:32;-0.50;99.90
1568;DHT22;777;47.156;8.326;2023-03-01T04:48:00;-0.50;99.90
1568;DHT22;777;47.156;8.326;2023-03-01T04:50:27;-0.50;99.90
1568;DHT22;777;47.156;8.326;2023-03-01T04:52:54;-0.50;99.90
1568;DHT22;777;47.156;8.326;2023-03-01T04:55:25;-0.50;99.90
1568;DHT22;777;47.156;8.326;2023-03-01T04:57:52;-0.50;99.90
1568;DHT22;777;47.156;8.326;2023-03-01T05:00:22;-0.50;99.90
1568;DHT22;777;47.156;8.326;2023-03-01T05:06:37;-0.50;99.90
1568;DHT22;777;47.156;8.326;2023-03-01T05:09:04;-0.50;99.90
1568;DHT22;777;47.156;8.326;2023-03-01T05:11:30;-0.50;99.90
1568;DHT22;777;47.156;8.326;2023-03-01T05:14:01;-0.50;99.90
1568;DHT22;777;47.156;8.326;2023-03-01T05:16:29;-0.40;99.90
1568;DHT22;777;47.156;8.326;2023-03-01T05:18:58;-0.50;99.90
1568;DHT22;777;47.156;8.326;2023-03-01T05:21:25;-0.50;99.90
1568;DHT22;777;47.156;8.326;2023-03-01T05:23:52;-0.50;99.90
1568;DHT22;777;47.156;8.326;2023-03-01T05:26:20;-0.40;99.90
1568;DHT22;777;47.156;8.326;2023-03-01T05:28:52;-0.40;99.90
1568;DHT22;777;47.156;8.326;2023-03-01T05:31:24;-0.40;99.90
1568;DHT22;777;47.156;8.326;2023-03-01T05:33:52;-0.40;99.90
1568;DHT22;777;47.156;8.326;2023-03-01T05:36:19;-0.40;99.90
1568;DHT22;777;47.156;8.326;2023-03-01T05:38:46;-0.40;99.90
1568;DHT22;777;47.156;8.326;2023-03-01T05:41:14;-0.40;99.90
1568;DHT22;777;47.156;8.326;2023-03-01T05:43:42;-0.40;99.90
1568;DHT22;777;47.156;8.326;2023-03-01T05:46:10;-0.40;99.90
1568;DHT22;777;47.156;8.326;2023-03-01T05:48:38;-0.40;99.90
1568;DHT22;777;47.156;8.326;2023-03-01T05:51:07;-0.40;99.90
1568;DHT22;777;47.156;8.326;2023-03-01T05:53:34;-0.40;99.90
1568;DHT22;777;47.156;8.326;2023-03-01T05:56:03;-0.40;99.90
1568;DHT22;777;47.156;8.326;2023-03-01T05:58:31;-0.40;99.90
1568;DHT22;777;47.156;8.326;2023-03-01T06:00:58;-0.40;99.90
1568;DHT22;777;47.156;8.326;2023-03-01T06:03:25;-0.40;99.90
1568;DHT22;777;47.156;8.326;2023-03-01T06:05:56;-0.40;99.90
1568;DHT22;777;47.156;8.326;2023-03-01T06:08:24;-0.30;99.90
1568;DHT22;777;47.156;8.326;2023-03-01T06:10:52;-0.30;99.90
1568;DHT22;777;47.156;8.326;2023-03-01T06:13:19;-0.30;99.90
1568;DHT22;777;47.156;8.326;2023-03-01T06:15:46;-0.40;99.90
1568;DHT22;777;47.156;8.326;2023-03-01T06:18:13;-0.40;99.90
1568;DHT22;777;47.156;8.326;2023-03-01T06:20:40;-0.40;99.90
1568;DHT22;777;47.156;8.326;2023-03-01T06:23:07;-0.40;99.90
1568;DHT22;777;47.156;8.326;2023-03-01T06:25:37;-0.40;99.90
1568;DHT22;777;47.156;8.326;2023-03-01T06:28:04;-0.30;99.90
1568;DHT22;777;47.156;8.326;2023-03-01T06:30:31;-0.30;99.90
1568;DHT22;777;47.156;8.326;2023-03-01T06:32:58;-0.30;99.90
1568;DHT22;777;47.156;8.326;2023-03-01T06:35:27;-0.30;99.90
1568;DHT22;777;47.156;8.326;2023-03-01T06:37:59;-0.30;99.90
1568;DHT22;777;47.156;8.326;2023-03-01T06:40:26;-0.30;99.90
1568;DHT22;777;47.156;8.326;2023-03-01T06:42:55;-0.30;99.90
1568;DHT22;777;47.156;8.326;2023-03-01T06:45:22;-0.30;99.90
1568;DHT22;777;47.156;8.326;2023-03-01T06:47:49;-0.30;99.90
1568;DHT22;777;47.156;8.326;2023-03-01T06:50:17;-0.30;99.90
1568;DHT22;777;47.156;8.326;2023-03-01T06:52:44;-0.30;99.90
1568;DHT22;777;47.156;8.326;2023-03-01T06:55:11;-0.30;99.90
1568;DHT22;777;47.156;8.326;2023-03-01T06:57:38;-0.30;99.90
1568;DHT22;777;47.156;8.326;2023-03-01T07:00:08;-0.30;99.90
1568;DHT22;777;47.156;8.326;2023-03-01T07:02:35;-0.20;99.90
1568;DHT22;777;47.156;8.326;2023-03-01T07:05:03;-0.20;99.90
1568;DHT22;777;47.156;8.326;2023-03-01T07:07:30;-0.20;99.90
1568;DHT22;777;47.156;8.326;2023-03-01T07:09:57;-0.20;99.90
1568;DHT22;777;47.156;8.326;2023-03-01T07:12:24;-0.20;99.90
1568;DHT22;777;47.156;8.326;2023-03-01T07:14:51;-0.20;99.90
1568;DHT22;777;47.156;8.326;2023-03-01T07:17:19;-0.20;99.90
1568;DHT22;777;47.156;8.326;2023-03-01T07:19:46;-0.20;99.90
1568;DHT22;777;47.156;8.326;2023-03-01T07:22:13;-0.20;99.90
1568;DHT22;777;47.156;8.326;2023-03-01T07:24:40;-0.10;99.90
1568;DHT22;777;47.156;8.326;2023-03-01T07:27:08;-0.10;99.90
1568;DHT22;777;47.156;8.326;2023-03-01T07:29:35;-0.10;99.90
1568;DHT22;777;47.156;8.326;2023-03-01T07:32:02;-0.10;99.90
1568;DHT22;777;47.156;8.326;2023-03-01T07:34:31;-0.10;99.90
1568;DHT22;777;47.156;8.326;2023-03-01T07:36:58;-0.10;99.90
1568;DHT22;777;47.156;8.326;2023-03-01T07:39:25;-0.10;99.90
1568;DHT22;777;47.156;8.326;2023-03-01T07:41:52;-0.10;99.90
1568;DHT22;777;47.156;8.326;2023-03-01T07:44:21;-0.10;99.90
1568;DHT22;777;47.156;8.326;2023-03-01T07:46:48;-0.10;99.90
1568;DHT22;777;47.156;8.326;2023-03-01T07:49:16;0.00;99.90
1568;DHT22;777;47.156;8.326;2023-03-01T07:51:45;0.00;99.90
1568;DHT22;777;47.156;8.326;2023-03-01T07:54:12;0.00;99.90
1568;DHT22;777;47.156;8.326;2023-03-01T07:56:39;0.00;99.90
1568;DHT22;777;47.156;8.326;2023-03-01T07:59:06;0.00;99.90
1568;DHT22;777;47.156;8.326;2023-03-01T08:01:33;0.00;99.90
1568;DHT22;777;47.156;8.326;2023-03-01T08:04:00;0.10;99.90
1568;DHT22;777;47.156;8.326;2023-03-01T08:06:27;0.10;99.90
1568;DHT22;777;47.156;8.326;2023-03-01T08:08:56;0.10;99.90
1568;DHT22;777;47.156;8.326;2023-03-01T08:11:24;0.10;99.90
1568;DHT22;777;47.156;8.326;2023-03-01T08:13:50;0.10;99.90
1568;DHT22;777;47.156;8.326;2023-03-01T08:16:18;0.10;99.90
1568;DHT22;777;47.156;8.326;2023-03-01T08:18:44;0.10;99.90
1568;DHT22;777;47.156;8.326;2023-03-01T08:21:14;0.20;99.90
1568;DHT22;777;47.156;8.326;2023-03-01T08:23:42;0.20;99.90
1568;DHT22;777;47.156;8.326;2023-03-01T08:26:12;0.20;99.90
1568;DHT22;777;47.156;8.326;2023-03-01T08:28:40;0.40;99.90
1568;DHT22;777;47.156;8.326;2023-03-01T08:31:14;0.40;99.90
1568;DHT22;777;47.156;8.326;2023-03-01T08:33:42;0.40;99.90
1568;DHT22;777;47.156;8.326;2023-03-01T08:36:09;0.30;99.90
1568;DHT22;777;47.156;8.326;2023-03-01T08:38:36;0.30;99.90
1568;DHT22;777;47.156;8.326;2023-03-01T08:41:04;0.30;99.90
1568;DHT22;777;47.156;8.326;2023-03-01T08:43:32;0.30;99.90
1568;DHT22;777;47.156;8.326;2023-03-01T08:45:59;0.30;99.90
1568;DHT22;777;47.156;8.326;2023-03-01T08:48:28;0.30;99.90
1568;DHT22;777;47.156;8.326;2023-03-01T08:50:55;0.30;99.90
1568;DHT22;777;47.156;8.326;2023-03-01T08:53:22;0.30;99.90
1568;DHT22;777;47.156;8.326;2023-03-01T08:55:49;0.40;99.90
1568;DHT22;777;47.156;8.326;2023-03-01T08:58:16;0.40;99.90
1568;DHT22;777;47.156;8.326;2023-03-01T09:00:44;0.40;99.90
1568;DHT22;777;47.156;8.326;2023-03-01T09:03:11;0.40;99.90
1568;DHT22;777;47.156;8.326;2023-03-01T09:05:38;0.50;99.90
1568;DHT22;777;47.156;8.326;2023-03-01T09:08:05;0.50;99.90
1568;DHT22;777;47.156;8.326;2023-03-01T09:10:37;0.50;99.90
1568;DHT22;777;47.156;8.326;2023-03-01T09:13:04;0.60;99.90
1568;DHT22;777;47.156;8.326;2023-03-01T09:15:31;0.50;99.90
1568;DHT22;777;47.156;8.326;2023-03-01T09:18:00;0.50;99.90
1568;DHT22;777;47.156;8.326;2023-03-01T09:20:27;0.50;99.90
1568;DHT22;777;47.156;8.326;2023-03-01T09:22:54;0.60;99.90
1568;DHT22;777;47.156;8.326;2023-03-01T09:25:21;0.70;99.90
1568;DHT22;777;47.156;8.326;2023-03-01T09:27:50;0.70;99.90
1568;DHT22;777;47.156;8.326;2023-03-01T09:30:17;0.70;99.90
1568;DHT22;777;47.156;8.326;2023-03-01T09:32:45;0.70;99.90
1568;DHT22;777;47.156;8.326;2023-03-01T09:35:13;0.70;99.90
1568;DHT22;777;47.156;8.326;2023-03-01T09:37:40;0.70;99.90
1568;DHT22;777;47.156;8.326;2023-03-01T09:40:13;0.80;99.90
1568;DHT22;777;47.156;8.326;2023-03-01T09:42:48;0.80;99.90
1568;DHT22;777;47.156;8.326;2023-03-01T09:45:25;0.70;99.90
1568;DHT22;777;47.156;8.326;2023-03-01T09:47:53;0.70;99.90
1568;DHT22;777;47.156;8.326;2023-03-01T09:50:22;0.80;99.90
1568;DHT22;777;47.156;8.326;2023-03-01T09:52:54;0.90;99.90
1568;DHT22;777;47.156;8.326;2023-03-01T09:55:31;0.90;99.90
1568;DHT22;777;47.156;8.326;2023-03-01T09:58:04;1.00;99.90
1568;DHT22;777;47.156;8.326;2023-03-01T10:00:39;1.00;99.90
1568;DHT22;777;47.156;8.326;2023-03-01T10:03:16;0.90;99.90
1568;DHT22;777;47.156;8.326;2023-03-01T10:06:02;0.80;99.90
1568;DHT22;777;47.156;8.326;2023-03-01T10:08:36;0.80;99.90
1568;DHT22;777;47.156;8.326;2023-03-01T10:11:19;0.90;99.90
1568;DHT22;777;47.156;8.326;2023-03-01T10:13:50;1.00;99.90
1568;DHT22;777;47.156;8.326;2023-03-01T10:16:26;0.90;99.90
1568;DHT22;777;47.156;8.326;2023-03-01T10:18:58;0.90;99.90
1568;DHT22;777;47.156;8.326;2023-03-01T10:21:28;1.00;99.90
1568;DHT22;777;47.156;8.326;2023-03-01T10:24:01;0.90;99.90
1568;DHT22;777;47.156;8.326;2023-03-01T10:26:43;1.00;99.90
1568;DHT22;777;47.156;8.326;2023-03-01T10:29:12;0.90;99.90
1568;DHT22;777;47.156;8.326;2023-03-01T10:31:43;0.80;99.90
1568;DHT22;777;47.156;8.326;2023-03-01T10:34:13;0.90;99.90
1568;DHT22;777;47.156;8.326;2023-03-01T10:36:43;0.90;99.90
1568;DHT22;777;47.156;8.326;2023-03-01T10:39:14;1.00;99.90
1568;DHT22;777;47.156;8.326;2023-03-01T10:41:59;0.90;99.90
1568;DHT22;777;47.156;8.326;2023-03-01T10:44:41;0.90;99.90
1568;DHT22;777;47.156;8.326;2023-03-01T10:47:14;1.00;99.90
1568;DHT22;777;47.156;8.326;2023-03-01T10:49:53;1.10;99.90
1568;DHT22;777;47.156;8.326;2023-03-01T10:52:23;1.10;99.90
1568;DHT22;777;47.156;8.326;2023-03-01T10:54:53;1.20;99.90
1568;DHT22;777;47.156;8.326;2023-03-01T10:57:28;1.20;99.90
1568;DHT22;777;47.156;8.326;2023-03-01T11:00:14;1.20;99.90
1568;DHT22;777;47.156;8.326;2023-03-01T11:02:42;1.10;99.90
1568;DHT22;777;47.156;8.326;2023-03-01T11:05:17;1.20;99.90
1568;DHT22;777;47.156;8.326;2023-03-01T11:07:51;1.30;99.90
1568;DHT22;777;47.156;8.326;2023-03-01T11:10:21;1.20;99.90
1568;DHT22;777;47.156;8.326;2023-03-01T11:12:48;1.20;99.90
1568;DHT22;777;47.156;8.326;2023-03-01T11:15:25;1.20;99.90
1568;DHT22;777;47.156;8.326;2023-03-01T11:17:54;1.30;99.90
1568;DHT22;777;47.156;8.326;2023-03-01T11:20:27;1.30;99.90
1568;DHT22;777;47.156;8.326;2023-03-01T11:23:01;1.30;99.90
1568;DHT22;777;47.156;8.326;2023-03-01T11:25:33;1.30;99.90
1568;DHT22;777;47.156;8.326;2023-03-01T11:28:03;1.30;99.90
1568;DHT22;777;47.156;8.326;2023-03-01T11:30:34;1.30;99.90
1568;DHT22;777;47.156;8.326;2023-03-01T11:33:15;1.40;99.90
1568;DHT22;777;47.156;8.326;2023-03-01T11:35:49;1.30;99.90
1568;DHT22;777;47.156;8.326;2023-03-01T11:38:22;1.20;99.90
1568;DHT22;777;47.156;8.326;2023-03-01T11:40:53;1.30;99.90
1568;DHT22;777;47.156;8.326;2023-03-01T11:43:31;1.40;99.90
1568;DHT22;777;47.156;8.326;2023-03-01T11:46:25;1.30;99.90
1568;DHT22;777;47.156;8.326;2023-03-01T11:49:05;1.30;99.90
1568;DHT22;777;47.156;8.326;2023-03-01T11:51:48;1.40;99.90
1568;DHT22;777;47.156;8.326;2023-03-01T11:54:26;1.40;99.90
1568;DHT22;777;47.156;8.326;2023-03-01T11:56:57;1.50;99.90
1568;DHT22;777;47.156;8.326;2023-03-01T11:59:45;1.50;99.90
1568;DHT22;777;47.156;8.326;2023-03-01T12:02:46;1.40;99.90
1568;DHT22;777;47.156;8.326;2023-03-01T12:05:27;1.30;99.90
1568;DHT22;777;47.156;8.326;2023-03-01T12:08:04;1.40;99.90
1568;DHT22;777;47.156;8.326;2023-03-01T12:10:43;1.40;99.90
1568;DHT22;777;47.156;8.326;2023-03-01T12:13:23;1.50;99.90
1568;DHT22;777;47.156;8.326;2023-03-01T12:16:07;1.50;99.90
1568;DHT22;777;47.156;8.326;2023-03-01T12:18:51;1.40;99.90
1568;DHT22;777;47.156;8.326;2023-03-01T12:21:30;1.50;99.90
1568;DHT22;777;47.156;8.326;2023-03-01T12:29:54;1.60;99.90
1568;DHT22;777;47.156;8.326;2023-03-01T12:32:34;1.50;99.90
1568;DHT22;777;47.156;8.326;2023-03-01T12:35:25;1.50;99.90
1568;DHT22;777;47.156;8.326;2023-03-01T12:37:58;1.40;99.90
1568;DHT22;777;47.156;8.326;2023-03-01T12:40:37;1.30;99.90
1568;DHT22;777;47.156;8.326;2023-03-01T12:43:19;1.40;99.90
1568;DHT22;777;47.156;8.326;2023-03-01T12:46:01;1.50;99.90
1568;DHT22;777;47.156;8.326;2023-03-01T12:48:38;1.40;99.90
1568;DHT22;777;47.156;8.326;2023-03-01T12:51:10;1.40;99.90
1568;DHT22;777;47.156;8.326;2023-03-01T12:53:40;1.40;99.90
1568;DHT22;777;47.156;8.326;2023-03-01T12:56:09;1.50;99.90
1568;DHT22;777;47.156;8.326;2023-03-01T12:58:46;1.50;99.90
1568;DHT22;777;47.156;8.326;2023-03-01T13:01:31;1.50;99.90
1568;DHT22;777;47.156;8.326;2023-03-01T13:04:33;1.50;99.90
1568;DHT22;777;47.156;8.326;2023-03-01T13:07:14;1.50;99.90
1568;DHT22;777;47.156;8.326;2023-03-01T13:09:49;1.50;99.90
1568;DHT22;777;47.156;8.326;2023-03-01T13:12:44;1.50;99.90
1568;DHT22;777;47.156;8.326;2023-03-01T13:15:30;1.60;99.90
1568;DHT22;777;47.156;8.326;2023-03-01T13:17:59;1.60;99.90
1568;DHT22;777;47.156;8.326;2023-03-01T13:20:29;1.60;99.90
1568;DHT22;777;47.156;8.326;2023-03-01T13:23:09;1.60;99.90
1568;DHT22;777;47.156;8.326;2023-03-01T13:26:12;1.60;99.90
1568;DHT22;777;47.156;8.326;2023-03-01T13:28:48;1.60;99.90
1568;DHT22;777;47.156;8.326;2023-03-01T13:34:56;1.90;99.90
1568;DHT22;777;47.156;8.326;2023-03-01T13:37:41;2.00;99.90
1568;DHT22;777;47.156;8.326;2023-03-01T13:43:30;1.80;99.90
1568;DHT22;777;47.156;8.326;2023-03-01T13:45:58;1.70;99.90
1568;DHT22;777;47.156;8.326;2023-03-01T13:48:28;1.90;99.90
1568;DHT22;777;47.156;8.326;2023-03-01T13:50:59;1.90;99.90
1568;DHT22;777;47.156;8.326;2023-03-01T13:53:30;1.80;99.90
1568;DHT22;777;47.156;8.326;2023-03-01T13:56:00;1.60;99.90
1568;DHT22;777;47.156;8.326;2023-03-01T13:58:30;1.40;99.90
1568;DHT22;777;47.156;8.326;2023-03-01T14:00:59;1.50;99.90
1568;DHT22;777;47.156;8.326;2023-03-01T14:03:28;1.50;99.90
1568;DHT22;777;47.156;8.326;2023-03-01T14:06:05;1.60;99.90
1568;DHT22;777;47.156;8.326;2023-03-01T14:08:34;1.60;99.90
1568;DHT22;777;47.156;8.326;2023-03-01T14:14:16;1.60;99.90
1568;DHT22;777;47.156;8.326;2023-03-01T14:16:55;1.80;99.90
1568;DHT22;777;47.156;8.326;2023-03-01T14:19:26;1.90;99.90
1568;DHT22;777;47.156;8.326;2023-03-01T14:22:05;2.00;99.90
1568;DHT22;777;47.156;8.326;2023-03-01T14:24:39;1.90;99.90
1568;DHT22;777;47.156;8.326;2023-03-01T14:27:11;1.90;99.90
1568;DHT22;777;47.156;8.326;2023-03-01T14:29:39;1.90;99.90
1568;DHT22;777;47.156;8.326;2023-03-01T14:32:12;1.90;99.90
1568;DHT22;777;47.156;8.326;2023-03-01T14:34:43;1.90;99.90
1568;DHT22;777;47.156;8.326;2023-03-01T14:37:19;1.90;99.90
1568;DHT22;777;47.156;8.326;2023-03-01T14:39:47;1.70;99.90
1568;DHT22;777;47.156;8.326;2023-03-01T14:42:15;1.80;99.90
1568;DHT22;777;47.156;8.326;2023-03-01T14:44:45;2.00;99.90
1568;DHT22;777;47.156;8.326;2023-03-01T14:47:16;2.00;99.90
1568;DHT22;777;47.156;8.326;2023-03-01T14:49:47;1.80;99.90
1568;DHT22;777;47.156;8.326;2023-03-01T14:52:21;1.80;99.90
1568;DHT22;777;47.156;8.326;2023-03-01T14:54:50;1.70;99.90
1568;DHT22;777;47.156;8.326;2023-03-01T14:57:20;1.80;99.90
1568;DHT22;777;47.156;8.326;2023-03-01T14:59:50;1.80;99.90
1568;DHT22;777;47.156;8.326;2023-03-01T15:02:22;1.70;99.90
1568;DHT22;777;47.156;8.326;2023-03-01T15:04:52;1.60;99.90
1568;DHT22;777;47.156;8.326;2023-03-01T15:07:26;1.60;99.90
1568;DHT22;777;47.156;8.326;2023-03-01T15:09:54;1.50;99.90
1568;DHT22;777;47.156;8.326;2023-03-01T15:12:36;1.50;99.90
1568;DHT22;777;47.156;8.326;2023-03-01T15:15:19;1.50;99.90
1568;DHT22;777;47.156;8.326;2023-03-01T15:17:52;1.50;99.90
1568;DHT22;777;47.156;8.326;2023-03-01T15:20:23;1.50;99.90
1568;DHT22;777;47.156;8.326;2023-03-01T15:22:53;1.50;99.90
1568;DHT22;777;47.156;8.326;2023-03-01T15:25:23;1.40;99.90
1568;DHT22;777;47.156;8.326;2023-03-01T15:27:52;1.50;99.90
1568;DHT22;777;47.156;8.326;2023-03-01T15:30:22;1.50;99.90
1568;DHT22;777;47.156;8.326;2023-03-01T15:33:18;1.60;99.90
1568;DHT22;777;47.156;8.326;2023-03-01T15:35:47;1.50;99.90
1568;DHT22;777;47.156;8.326;2023-03-01T15:38:30;1.40;99.90
1568;DHT22;777;47.156;8.326;2023-03-01T15:40:58;1.50;99.90
1568;DHT22;777;47.156;8.326;2023-03-01T15:43:41;1.50;99.90
1568;DHT22;777;47.156;8.326;2023-03-01T15:46:26;1.50;99.90
1568;DHT22;777;47.156;8.326;2023-03-01T15:48:57;1.50;99.90
1568;DHT22;777;47.156;8.326;2023-03-01T15:51:33;1.50;99.90
1568;DHT22;777;47.156;8.326;2023-03-01T15:54:05;1.40;99.90
1568;DHT22;777;47.156;8.326;2023-03-01T15:56:34;1.40;99.90
1568;DHT22;777;47.156;8.326;2023-03-01T15:59:02;1.40;99.90
1568;DHT22;777;47.156;8.326;2023-03-01T16:01:30;1.30;99.90
1568;DHT22;777;47.156;8.326;2023-03-01T16:03:59;1.20;99.90
1568;DHT22;777;47.156;8.326;2023-03-01T16:06:26;1.20;99.90
1568;DHT22;777;47.156;8.326;2023-03-01T16:08:53;1.30;99.90
1568;DHT22;777;47.156;8.326;2023-03-01T16:11:22;1.20;99.90
1568;DHT22;777;47.156;8.326;2023-03-01T16:13:49;1.30;99.90
1568;DHT22;777;47.156;8.326;2023-03-01T16:16:16;1.20;99.90
1568;DHT22;777;47.156;8.326;2023-03-01T16:18:45;1.20;99.90
1568;DHT22;777;47.156;8.326;2023-03-01T16:21:14;1.10;99.90
1568;DHT22;777;47.156;8.326;2023-03-01T16:23:43;1.10;99.90
1568;DHT22;777;47.156;8.326;2023-03-01T16:26:12;1.10;99.90
1568;DHT22;777;47.156;8.326;2023-03-01T16:28:41;1.10;99.90
1568;DHT22;777;47.156;8.326;2023-03-01T16:31:08;1.10;99.90
1568;DHT22;777;47.156;8.326;2023-03-01T16:33:36;1.10;99.90
1568;DHT22;777;47.156;8.326;2023-03-01T16:36:08;1.10;99.90
1568;DHT22;777;47.156;8.326;2023-03-01T16:38:35;1.00;99.90
1568;DHT22;777;47.156;8.326;2023-03-01T16:41:02;1.00;99.90
1568;DHT22;777;47.156;8.326;2023-03-01T16:43:29;1.00;99.90
1568;DHT22;777;47.156;8.326;2023-03-01T16:45:58;1.00;99.90
1568;DHT22;777;47.156;8.326;2023-03-01T16:48:25;1.00;99.90
1568;DHT22;777;47.156;8.326;2023-03-01T16:50:57;1.00;99.90
1568;DHT22;777;47.156;8.326;2023-03-01T16:53:24;0.90;99.90
1568;DHT22;777;47.156;8.326;2023-03-01T16:55:54;0.90;99.90
1568;DHT22;777;47.156;8.326;2023-03-01T16:58:22;0.90;99.90
1568;DHT22;777;47.156;8.326;2023-03-01T17:00:50;0.90;99.90
1568;DHT22;777;47.156;8.326;2023-03-01T17:03:20;0.90;99.90
1568;DHT22;777;47.156;8.326;2023-03-01T17:05:47;0.80;99.90
1568;DHT22;777;47.156;8.326;2023-03-01T17:08:15;0.80;99.90
1568;DHT22;777;47.156;8.326;2023-03-01T17:10:42;0.80;99.90